createdAt,value
2017-09-16T00:01:02.310Z,99602.62
2017-09-16T00:04:03.570Z,99614.67
2017-09-16T00:07:04.853Z,99609.15
2017-09-16T00:10:06.134Z,99612.04
2017-09-16T00:13:08.189Z,99613.23
2017-09-16T00:16:09.466Z,99611.69
2017-09-16T00:19:10.797Z,99612.28
2017-09-16T00:22:12.814Z,99612.73
2017-09-16T00:25:14.094Z,99605.20
2017-09-16T00:28:15.397Z,99607.38
2017-09-16T00:31:16.693Z,99602.84
2017-09-16T00:34:18.201Z,99588.69
2017-09-16T00:37:19.502Z,99588.16
2017-09-16T00:40:20.790Z,99586.62
2017-09-16T00:43:22.090Z,99582.56
2017-09-16T00:46:23.398Z,99584.44
2017-09-16T00:49:24.709Z,99582.34
2017-09-16T00:52:26.769Z,99587.34
2017-09-16T00:55:28.833Z,99580.53
2017-09-16T00:58:30.174Z,99573.45
2017-09-16T01:01:31.466Z,99579.64
2017-09-16T01:04:39.762Z,99577.06
2017-09-16T01:07:41.832Z,99577.20
2017-09-16T01:10:43.888Z,99569.26
2017-09-16T01:13:46.083Z,99564.05
2017-09-16T01:16:47.365Z,99573.52
2017-09-16T01:19:48.698Z,99580.18
2017-09-16T01:22:50.022Z,99574.57
2017-09-16T01:25:51.397Z,99572.11
2017-09-16T01:28:52.725Z,99566.11
2017-09-16T01:31:54.053Z,99567.60
2017-09-16T01:34:56.242Z,99568.12
2017-09-16T01:37:57.573Z,99564.81
2017-09-16T01:40:59.981Z,99557.28
2017-09-16T01:44:01.249Z,99562.57
2017-09-16T01:47:02.539Z,99563.75
2017-09-16T01:50:04.545Z,99565.79
2017-09-16T01:53:05.830Z,99563.76
2017-09-16T01:56:07.105Z,99561.05
2017-09-16T01:59:09.117Z,99563.70
2017-09-16T02:02:10.406Z,99563.97
2017-09-16T02:05:11.699Z,99569.69
2017-09-16T02:08:13.105Z,99567.80
2017-09-16T02:11:14.373Z,99569.45
2017-09-16T02:14:15.693Z,99565.81
2017-09-16T02:17:16.967Z,99570.31
2017-09-16T02:20:18.279Z,99575.05
2017-09-16T02:23:20.298Z,99579.66
2017-09-16T02:26:22.354Z,99576.33
2017-09-16T02:29:23.658Z,99577.00
2017-09-16T02:32:25.700Z,99571.53
2017-09-16T02:35:27.722Z,99570.44
2017-09-16T02:38:29.017Z,99561.05
2017-09-16T02:41:30.341Z,99573.59
2017-09-16T02:44:31.633Z,99569.81
2017-09-16T02:47:34.038Z,99564.20
2017-09-16T02:50:35.310Z,99563.65
2017-09-16T02:53:36.920Z,99560.63
2017-09-16T02:56:38.930Z,99570.89
2017-09-16T02:59:40.283Z,99558.75
2017-09-16T03:02:41.549Z,99565.94
2017-09-16T03:05:42.838Z,99563.48
2017-09-16T03:08:44.109Z,99564.63
2017-09-16T03:11:45.878Z,99564.12
2017-09-16T03:14:47.521Z,99565.00
2017-09-16T03:17:48.837Z,99552.58
2017-09-16T03:20:50.834Z,99559.05
2017-09-16T03:23:52.125Z,99550.63
2017-09-16T03:26:53.399Z,99553.30
2017-09-16T03:29:55.465Z,99557.53
2017-09-16T03:32:57.457Z,99548.65
2017-09-16T03:35:58.759Z,99552.34
2017-09-16T03:39:00.021Z,99551.73
2017-09-16T03:42:02.061Z,99551.89
2017-09-16T03:45:03.357Z,99557.91
2017-09-16T03:48:04.645Z,99555.41
2017-09-16T03:51:05.918Z,99551.86
2017-09-16T03:54:07.218Z,99557.52
2017-09-16T03:57:08.981Z,99556.52
2017-09-16T04:00:10.269Z,99555.27
2017-09-16T04:03:11.569Z,99552.58
2017-09-16T04:06:12.849Z,99547.83
2017-09-16T04:09:14.158Z,99549.25
2017-09-16T04:12:15.433Z,99549.16
2017-09-16T04:15:16.778Z,99535.35
2017-09-16T04:18:18.046Z,99544.63
2017-09-16T04:21:19.361Z,99548.45
2017-09-16T04:24:20.825Z,99545.66
2017-09-16T04:27:22.098Z,99551.99
2017-09-16T04:30:23.553Z,99543.16
2017-09-16T04:33:24.824Z,99550.78
2017-09-16T04:36:26.130Z,99546.61
2017-09-16T04:39:27.405Z,99552.19
2017-09-16T04:42:28.738Z,99546.44
2017-09-16T04:45:30.058Z,99542.11
2017-09-16T04:48:31.377Z,99537.63
2017-09-16T04:51:32.678Z,99540.23
2017-09-16T04:54:33.975Z,99544.51
2017-09-16T04:57:36.137Z,99550.00
2017-09-16T05:00:37.418Z,99541.58
2017-09-16T05:03:38.721Z,99544.13
2017-09-16T05:06:39.970Z,99543.63
2017-09-16T05:09:41.274Z,99546.61
2017-09-16T05:12:42.554Z,99551.92
2017-09-16T05:15:43.842Z,99544.23
2017-09-16T05:18:45.862Z,99547.30
2017-09-16T05:21:47.157Z,99553.05
2017-09-16T05:24:49.175Z,99559.49
2017-09-16T05:27:50.470Z,99560.30
2017-09-16T05:30:52.566Z,99551.47
2017-09-16T05:33:53.875Z,99549.43
2017-09-16T05:36:55.134Z,99554.17
2017-09-16T05:39:57.160Z,99547.48
2017-09-16T05:42:58.450Z,99551.89
2017-09-16T05:46:00.477Z,99567.07
2017-09-16T05:49:02.109Z,99556.23
2017-09-16T05:52:03.366Z,99563.39
2017-09-16T05:55:04.679Z,99564.59
2017-09-16T05:58:06.681Z,99557.38
2017-09-16T06:01:08.230Z,99554.98
2017-09-16T06:04:16.534Z,99560.27
2017-09-16T06:07:17.829Z,99560.58
2017-09-16T06:10:19.119Z,99562.61
2017-09-16T06:13:20.418Z,99555.81
2017-09-16T06:16:21.723Z,99560.35
2017-09-16T06:19:23.030Z,99558.02
2017-09-16T06:22:24.327Z,99558.59
2017-09-16T06:25:25.602Z,99560.86
2017-09-16T06:28:26.930Z,99567.91
2017-09-16T06:31:28.234Z,99572.13
2017-09-16T06:34:29.519Z,99572.64
2017-09-16T06:37:30.798Z,99572.81
2017-09-16T06:40:32.114Z,99567.58
2017-09-16T06:43:33.381Z,99567.44
2017-09-16T06:46:34.694Z,99579.55
2017-09-16T06:49:36.710Z,99579.86
2017-09-16T06:52:38.758Z,99589.59
2017-09-16T06:55:40.016Z,99590.27
2017-09-16T06:58:42.342Z,99584.09
2017-09-16T07:01:44.371Z,99589.83
2017-09-16T07:04:45.738Z,99584.88
2017-09-16T07:07:47.027Z,99577.02
2017-09-16T07:10:48.341Z,99585.61
2017-09-16T07:13:49.618Z,99592.89
2017-09-16T07:16:50.922Z,99592.24
2017-09-16T07:19:52.182Z,99591.48
2017-09-16T07:22:53.482Z,99595.30
2017-09-16T07:25:54.746Z,99604.75
2017-09-16T07:28:56.785Z,99601.97
2017-09-16T07:31:58.278Z,99600.24
2017-09-16T07:34:59.561Z,99613.86
2017-09-16T07:38:01.098Z,99615.16
2017-09-16T07:41:02.436Z,99620.03
2017-09-16T07:44:03.770Z,99616.62
2017-09-16T07:47:05.770Z,99623.27
2017-09-16T07:50:07.066Z,99623.12
2017-09-16T07:53:08.355Z,99626.13
2017-09-16T07:56:09.657Z,99633.90
2017-09-16T07:59:11.046Z,99641.02
2017-09-16T08:02:12.340Z,99637.52
2017-09-16T08:05:13.725Z,99639.83
2017-09-16T08:08:15.836Z,99642.59
2017-09-16T08:11:17.183Z,99639.43
2017-09-16T08:14:18.470Z,99642.41
2017-09-16T08:17:19.764Z,99651.83
2017-09-16T08:20:21.130Z,99643.19
2017-09-16T08:23:22.426Z,99642.91
2017-09-16T08:26:23.872Z,99649.06
2017-09-16T08:29:25.146Z,99640.84
2017-09-16T08:32:27.458Z,99642.83
2017-09-16T08:35:28.713Z,99646.55
2017-09-16T08:38:30.001Z,99655.21
2017-09-16T08:41:31.262Z,99651.82
2017-09-16T08:44:33.277Z,99654.59
2017-09-16T08:47:36.895Z,99656.50
2017-09-16T08:50:38.283Z,99666.55
2017-09-16T08:53:40.902Z,99653.19
2017-09-16T08:56:42.242Z,99652.35
2017-09-16T08:59:43.649Z,99652.59
2017-09-16T09:02:44.938Z,99643.78
2017-09-16T09:05:46.749Z,99649.75
2017-09-16T09:08:48.006Z,99652.23
2017-09-16T09:11:49.295Z,99643.23
2017-09-16T09:14:50.588Z,99648.63
2017-09-16T09:17:51.989Z,99642.63
2017-09-16T09:20:53.251Z,99648.79
2017-09-16T09:23:54.551Z,99647.03
2017-09-16T09:26:55.875Z,99647.48
2017-09-16T09:29:57.165Z,99642.20
2017-09-16T09:32:59.212Z,99651.11
2017-09-16T09:36:00.539Z,99642.86
2017-09-16T09:39:02.010Z,99650.78
2017-09-16T09:42:03.287Z,99657.34
2017-09-16T09:45:05.921Z,99652.86
2017-09-16T09:48:07.234Z,99645.64
2017-09-16T09:51:08.516Z,99648.41
2017-09-16T09:54:09.795Z,99657.48
2017-09-16T09:57:11.087Z,99654.62
2017-09-16T10:00:12.358Z,99654.52
2017-09-16T10:03:13.670Z,99660.38
2017-09-16T10:06:14.954Z,99655.28
2017-09-16T10:09:16.266Z,99660.03
2017-09-16T10:12:18.460Z,99654.08
2017-09-16T10:15:19.726Z,99662.57
2017-09-16T10:18:21.041Z,99666.02
2017-09-16T10:21:22.307Z,99660.82
2017-09-16T10:24:23.615Z,99654.53
2017-09-16T10:27:25.639Z,99653.20
2017-09-16T10:30:27.078Z,99657.77
2017-09-16T10:33:28.335Z,99647.17
2017-09-16T10:36:29.649Z,99648.86
2017-09-16T10:39:30.948Z,99637.30
2017-09-16T10:42:32.272Z,99646.41
2017-09-16T10:45:33.674Z,99656.28
2017-09-16T10:48:35.682Z,99645.97
2017-09-16T10:51:37.006Z,99652.94
2017-09-16T10:54:38.308Z,99643.08
2017-09-16T10:57:39.592Z,99655.71
2017-09-16T11:00:41.618Z,99654.92
2017-09-16T11:03:42.943Z,99652.72
2017-09-16T11:06:44.233Z,99649.47
2017-09-16T11:09:45.535Z,99645.33
2017-09-16T11:12:46.933Z,99642.07
2017-09-16T11:15:48.222Z,99639.33
2017-09-16T11:18:49.552Z,99642.56
2017-09-16T11:21:51.584Z,99631.89
2017-09-16T11:24:52.886Z,99641.72
2017-09-16T11:27:54.205Z,99635.46
2017-09-16T11:30:55.560Z,99634.84
2017-09-16T11:33:57.580Z,99639.99
2017-09-16T11:36:58.900Z,99638.45
2017-09-16T11:40:00.194Z,99631.02
2017-09-16T11:43:01.503Z,99639.64
2017-09-16T11:46:02.781Z,99630.55
2017-09-16T11:49:04.081Z,99627.20
2017-09-16T11:52:06.243Z,99633.27
2017-09-16T11:55:08.262Z,99637.07
2017-09-16T11:58:09.675Z,99634.03
2017-09-16T12:01:10.971Z,99628.47
2017-09-16T12:04:12.271Z,99626.89
2017-09-16T12:07:14.279Z,99621.52
2017-09-16T12:10:15.586Z,99630.13
2017-09-16T12:13:16.882Z,99625.56
2017-09-16T12:16:18.287Z,99620.26
2017-09-16T12:19:20.720Z,99614.14
2017-09-16T12:22:22.802Z,99618.56
2017-09-16T12:25:24.059Z,99610.55
2017-09-16T12:28:26.105Z,99611.72
2017-09-16T12:31:27.411Z,99603.38
2017-09-16T12:34:28.706Z,99605.43
2017-09-16T12:37:29.983Z,99607.84
2017-09-16T12:40:32.068Z,99608.09
2017-09-16T12:43:34.107Z,99615.95
2017-09-16T12:46:36.147Z,99603.64
2017-09-16T12:49:37.562Z,99609.59
2017-09-16T12:52:38.827Z,99606.44
2017-09-16T12:55:40.158Z,99612.95
2017-09-16T12:58:41.422Z,99607.73
2017-09-16T13:01:42.714Z,99607.55
2017-09-16T13:04:43.969Z,99605.78
2017-09-16T13:07:46.024Z,99601.14
2017-09-16T13:10:47.323Z,99601.21
2017-09-16T13:13:48.624Z,99609.09
2017-09-16T13:16:49.940Z,99608.83
2017-09-16T13:19:51.226Z,99612.41
2017-09-16T13:22:52.816Z,99601.95
2017-09-16T13:25:54.879Z,99591.41
2017-09-16T13:28:56.236Z,99600.93
2017-09-16T13:31:57.542Z,99606.98
2017-09-16T13:34:58.866Z,99593.62
2017-09-16T13:38:00.197Z,99595.20
2017-09-16T13:41:02.271Z,99590.45
2017-09-16T13:44:03.703Z,99595.05
2017-09-16T13:47:05.003Z,99589.53
2017-09-16T13:50:06.530Z,99596.58
2017-09-16T13:53:07.800Z,99586.67
2017-09-16T13:56:09.858Z,99596.06
2017-09-16T13:59:11.163Z,99583.95
2017-09-16T14:02:12.539Z,99583.49
2017-09-16T14:05:13.839Z,99583.59
2017-09-16T14:08:15.200Z,99588.77
2017-09-16T14:11:17.356Z,99575.17
2017-09-16T14:14:18.635Z,99577.72
2017-09-16T14:17:19.946Z,99586.02
2017-09-16T14:20:21.290Z,99582.45
2017-09-16T14:23:23.347Z,99582.23
2017-09-16T14:26:24.659Z,99585.60
2017-09-16T14:29:25.967Z,99577.98
2017-09-16T14:32:27.390Z,99574.55
2017-09-16T14:35:28.747Z,99583.91
2017-09-16T14:38:30.050Z,99579.86
2017-09-16T14:41:31.377Z,99585.33
2017-09-16T14:44:32.654Z,99574.95
2017-09-16T14:47:33.998Z,99575.13
2017-09-16T14:50:35.284Z,99575.00
2017-09-16T14:53:36.583Z,99568.34
2017-09-16T14:56:37.987Z,99574.31
2017-09-16T14:59:39.289Z,99588.73
2017-09-16T15:02:40.628Z,99573.09
2017-09-16T15:05:42.639Z,99578.95
2017-09-16T15:08:43.971Z,99577.75
2017-09-16T15:11:45.995Z,99576.04
2017-09-16T15:14:47.307Z,99574.97
2017-09-16T15:17:48.584Z,99581.54
2017-09-16T15:20:50.627Z,99587.26
2017-09-16T15:23:51.911Z,99587.23
2017-09-16T15:26:53.962Z,99582.17
2017-09-16T15:29:55.371Z,99582.80
2017-09-16T15:32:56.662Z,99585.12
2017-09-16T15:35:57.977Z,99582.27
2017-09-16T15:38:59.278Z,99578.33
2017-09-16T15:42:01.343Z,99580.91
2017-09-16T15:45:03.371Z,99576.72
2017-09-16T15:48:04.688Z,99585.43
2017-09-16T15:51:06.783Z,99589.18
2017-09-16T15:54:08.083Z,99587.06
2017-09-16T15:57:09.374Z,99599.08
2017-09-16T16:00:10.665Z,99590.38
2017-09-16T16:03:11.976Z,99601.03
2017-09-16T16:06:13.270Z,99604.55
2017-09-16T16:09:14.555Z,99603.69
2017-09-16T16:12:15.911Z,99607.14
2017-09-16T16:15:17.179Z,99608.91
2017-09-16T16:18:18.570Z,99622.66
2017-09-16T16:21:19.919Z,99624.75
2017-09-16T16:24:21.235Z,99627.34
2017-09-16T16:27:22.535Z,99620.97
2017-09-16T16:30:24.627Z,99622.09
2017-09-16T16:33:26.008Z,99623.59
2017-09-16T16:36:27.319Z,99628.34
2017-09-16T16:39:29.493Z,99638.59
2017-09-16T16:42:30.914Z,99629.73
2017-09-16T16:45:32.418Z,99636.87
2017-09-16T16:48:33.859Z,99640.13
2017-09-16T16:51:35.175Z,99654.08
2017-09-16T16:54:37.216Z,99659.75
2017-09-16T16:57:38.922Z,99656.56
2017-09-16T17:00:40.290Z,99652.14
2017-09-16T17:03:41.587Z,99652.44
2017-09-16T17:06:43.040Z,99649.81
2017-09-16T17:09:50.469Z,99657.72
2017-09-16T17:12:51.886Z,99658.92
2017-09-16T17:15:53.190Z,99665.20
2017-09-16T17:18:55.670Z,99662.37
2017-09-16T17:21:56.990Z,99670.89
2017-09-16T17:24:59.210Z,99668.78
2017-09-16T17:28:00.520Z,99663.08
2017-09-16T17:31:01.959Z,99673.58
2017-09-16T17:34:04.048Z,99684.41
2017-09-16T17:37:05.419Z,99685.38
2017-09-16T17:40:06.745Z,99685.85
2017-09-16T17:43:08.245Z,99691.45
2017-09-16T17:46:09.579Z,99701.95
2017-09-16T17:49:11.011Z,99701.82
2017-09-16T17:52:12.701Z,99705.79
2017-09-16T17:55:14.097Z,99707.41
2017-09-16T17:58:15.451Z,99696.34
2017-09-16T18:01:16.806Z,99698.50
2017-09-16T18:04:18.149Z,99697.98
2017-09-16T18:07:19.468Z,99698.41
2017-09-16T18:10:20.789Z,99702.34
2017-09-16T18:13:23.084Z,99697.18
2017-09-16T18:16:24.417Z,99708.62
2017-09-16T18:19:27.087Z,99710.33
2017-09-16T18:22:28.387Z,99712.45
2017-09-16T18:25:30.207Z,99723.18
2017-09-16T18:28:31.603Z,99716.89
2017-09-16T18:31:33.101Z,99722.31
2017-09-16T18:34:34.513Z,99728.13
2017-09-16T18:37:36.920Z,99723.14
2017-09-16T18:40:39.055Z,99727.80
2017-09-16T18:43:41.224Z,99730.09
2017-09-16T18:46:42.632Z,99722.16
2017-09-16T18:49:44.004Z,99734.14
2017-09-16T18:52:47.082Z,99730.62
2017-09-16T18:55:48.708Z,99734.39
2017-09-16T18:58:50.507Z,99732.94
2017-09-16T19:01:52.589Z,99732.64
2017-09-16T19:04:54.141Z,99738.80
2017-09-16T19:07:55.498Z,99743.71
2017-09-16T19:10:56.994Z,99738.97
2017-09-16T19:13:59.893Z,99743.11
2017-09-16T19:17:02.640Z,99739.20
2017-09-16T19:20:04.029Z,99744.70
2017-09-16T19:23:06.254Z,99750.98
2017-09-16T19:26:07.615Z,99749.81
2017-09-16T19:29:09.227Z,99747.13
2017-09-16T19:32:10.910Z,99743.91
2017-09-16T19:35:14.516Z,99748.12
2017-09-16T19:38:15.832Z,99745.17
2017-09-16T19:41:18.109Z,99750.38
2017-09-16T19:44:21.207Z,99750.83
2017-09-16T19:47:22.608Z,99748.62
2017-09-16T19:50:24.893Z,99751.34
2017-09-16T19:53:26.413Z,99750.74
2017-09-16T19:56:28.996Z,99759.62
2017-09-16T19:59:30.925Z,99766.06
2017-09-16T20:02:32.507Z,99773.41
2017-09-16T20:05:34.565Z,99764.05
2017-09-16T20:08:36.664Z,99769.27
2017-09-16T20:11:38.784Z,99769.67
2017-09-16T20:14:40.492Z,99774.14
2017-09-16T20:17:43.206Z,99771.80
2017-09-16T20:20:44.557Z,99772.82
2017-09-16T20:23:46.169Z,99776.51
2017-09-16T20:26:48.921Z,99768.67
2017-09-16T20:29:51.269Z,99780.33
2017-09-16T20:32:54.747Z,99777.59
2017-09-16T20:35:57.080Z,99780.91
2017-09-16T20:38:59.390Z,99775.36
2017-09-16T20:42:00.903Z,99790.05
2017-09-16T20:45:04.188Z,99782.98
2017-09-16T20:48:06.294Z,99788.34
2017-09-16T20:51:09.121Z,99786.40
2017-09-16T20:54:12.213Z,99785.60
2017-09-16T20:57:13.674Z,99787.87
2017-09-16T21:00:15.067Z,99790.79
2017-09-16T21:03:16.468Z,99801.62
2017-09-16T21:06:17.874Z,99798.64
2017-09-16T21:09:19.682Z,99796.09
2017-09-16T21:12:21.133Z,99806.09
2017-09-16T21:15:22.551Z,99799.36
2017-09-16T21:18:24.004Z,99808.30
2017-09-16T21:21:26.880Z,99803.01
2017-09-16T21:24:28.486Z,99805.19
2017-09-16T21:27:29.902Z,99800.48
2017-09-16T21:30:31.989Z,99808.58
2017-09-16T21:33:34.297Z,99808.91
2017-09-16T21:36:35.892Z,99812.30
2017-09-16T21:39:38.043Z,99814.12
2017-09-16T21:42:39.650Z,99816.27
2017-09-16T21:45:41.025Z,99816.29
2017-09-16T21:48:43.376Z,99807.95
2017-09-16T21:51:45.260Z,99810.45
2017-09-16T21:54:46.679Z,99812.13
2017-09-16T21:57:48.060Z,99808.56
2017-09-16T22:00:50.250Z,99819.82
2017-09-16T22:03:51.861Z,99815.74
2017-09-16T22:06:53.242Z,99812.73
2017-09-16T22:09:54.756Z,99806.92
2017-09-16T22:12:56.109Z,99813.89
2017-09-16T22:15:57.533Z,99817.48
2017-09-16T22:18:59.656Z,99814.79
2017-09-16T22:22:01.056Z,99818.00
2017-09-16T22:25:02.444Z,99818.06
2017-09-16T22:28:04.631Z,99819.58
2017-09-16T22:31:06.055Z,99825.13
2017-09-16T22:34:07.576Z,99812.11
2017-09-16T22:37:09.004Z,99819.53
2017-09-16T22:40:10.427Z,99823.73
2017-09-16T22:43:11.937Z,99824.66
2017-09-16T22:46:13.348Z,99818.17
2017-09-16T22:49:15.490Z,99818.28
2017-09-16T22:52:17.111Z,99811.45
2017-09-16T22:55:19.243Z,99813.44
2017-09-16T22:58:20.783Z,99820.12
2017-09-16T23:01:22.225Z,99821.56
2017-09-16T23:04:24.357Z,99813.02
2017-09-16T23:07:25.799Z,99814.28
2017-09-16T23:10:27.319Z,99816.13
2017-09-16T23:13:29.430Z,99811.06
2017-09-16T23:16:30.829Z,99805.97
2017-09-16T23:19:32.362Z,99814.50
2017-09-16T23:22:33.763Z,99823.81
2017-09-16T23:25:35.350Z,99817.09
2017-09-16T23:31:45.592Z,99816.13
2017-09-16T23:34:47.751Z,99827.77
2017-09-16T23:37:49.165Z,99814.22
2017-09-16T23:40:51.290Z,99823.91
2017-09-16T23:43:52.759Z,99815.73
2017-09-16T23:46:54.197Z,99824.42
2017-09-16T23:49:56.328Z,99822.16
2017-09-16T23:52:57.733Z,99816.40
2017-09-16T23:55:59.255Z,99814.59
